createdAt,value
2019-02-05T00:00:56.400Z,10.65
2019-02-05T00:03:24.309Z,11.60
2019-02-05T00:05:53.540Z,13.25
2019-02-05T00:08:21.604Z,8.93
2019-02-05T00:10:49.650Z,11.25
2019-02-05T00:13:21.053Z,13.83
2019-02-05T00:15:49.286Z,13.55
2019-02-05T00:18:17.368Z,11.90
2019-02-05T00:20:46.057Z,9.03
2019-02-05T00:23:14.266Z,11.18
2019-02-05T00:25:42.148Z,10.95
2019-02-05T00:28:11.865Z,12.07
2019-02-05T00:30:39.802Z,10.80
2019-02-05T00:33:07.732Z,10.60
2019-02-05T00:35:35.744Z,9.08
2019-02-05T00:38:04.191Z,11.45
2019-02-05T00:40:32.048Z,9.23
2019-02-05T00:43:00.015Z,11.55
2019-02-05T00:45:28.641Z,11.35
2019-02-05T00:47:56.608Z,11.97
2019-02-05T00:50:25.525Z,11.88
2019-02-05T00:52:56.504Z,11.12
2019-02-05T00:55:24.538Z,11.18
2019-02-05T00:57:52.568Z,12.65
2019-02-05T01:00:24.982Z,12.25
2019-02-05T01:02:54.079Z,13.28
2019-02-05T01:05:22.326Z,11.65
2019-02-05T01:07:50.254Z,14.98
2019-02-05T01:10:18.334Z,9.60
2019-02-05T01:12:46.677Z,10.40
2019-02-05T01:15:16.073Z,11.75
2019-02-05T01:17:44.224Z,13.53
2019-02-05T01:20:15.480Z,10.55
2019-02-05T01:22:43.440Z,13.30
2019-02-05T01:25:11.654Z,11.88
2019-02-05T01:27:39.516Z,11.73
2019-02-05T01:30:11.707Z,9.73
2019-02-05T01:32:39.668Z,11.40
2019-02-05T01:35:07.725Z,10.45
2019-02-05T01:37:38.399Z,14.00
2019-02-05T01:40:07.771Z,11.48
2019-02-05T01:42:35.811Z,11.15
2019-02-05T01:45:05.612Z,12.00
2019-02-05T01:47:33.510Z,11.33
2019-02-05T01:50:01.467Z,11.53
2019-02-05T01:52:29.338Z,14.28
2019-02-05T01:54:57.298Z,11.63
2019-02-05T01:57:25.345Z,15.13
2019-02-05T01:59:54.162Z,9.25
2019-02-05T02:02:22.874Z,15.58
2019-02-05T02:04:50.834Z,12.18
2019-02-05T02:07:18.746Z,12.37
2019-02-05T02:09:46.706Z,10.55
2019-02-05T02:12:14.662Z,11.73
2019-02-05T02:14:42.569Z,15.93
2019-02-05T02:17:10.736Z,11.88
2019-02-05T02:19:38.648Z,11.68
2019-02-05T02:22:06.604Z,12.00
2019-02-05T02:24:34.563Z,12.88
2019-02-05T02:27:02.617Z,11.20
2019-02-05T02:29:30.472Z,11.90
2019-02-05T02:31:58.526Z,13.08
2019-02-05T02:34:26.710Z,15.10
2019-02-05T02:37:04.421Z,16.10
2019-02-05T02:39:32.304Z,12.30
2019-02-05T02:42:00.247Z,13.00
2019-02-05T02:44:28.085Z,15.75
2019-02-05T02:46:55.940Z,14.53
2019-02-05T02:49:24.166Z,14.53
2019-02-05T02:51:52.056Z,14.40
2019-02-05T02:54:19.955Z,13.08
2019-02-05T02:56:47.860Z,14.50
2019-02-05T02:59:15.828Z,15.55
2019-02-05T03:01:43.829Z,15.85
2019-02-05T03:04:11.714Z,16.90
2019-02-05T03:06:39.924Z,14.00
2019-02-05T03:09:09.489Z,14.45
2019-02-05T03:11:37.713Z,16.57
2019-02-05T03:14:05.774Z,12.58
2019-02-05T03:16:33.737Z,12.05
2019-02-05T03:19:01.634Z,15.90
2019-02-05T03:21:29.574Z,14.35
2019-02-05T03:23:58.627Z,14.13
2019-02-05T03:26:26.491Z,11.80
2019-02-05T03:28:54.427Z,15.38
2019-02-05T03:31:22.370Z,14.20
2019-02-05T03:33:50.250Z,14.33
2019-02-05T03:36:18.086Z,15.35
2019-02-05T03:38:45.986Z,17.07
2019-02-05T03:41:13.919Z,17.65
2019-02-05T03:43:42.026Z,15.43
2019-02-05T03:46:11.880Z,16.73
2019-02-05T03:48:40.833Z,15.88
2019-02-05T03:51:57.283Z,16.80
2019-02-05T03:55:19.664Z,12.70
2019-02-05T03:58:46.431Z,13.65
2019-02-05T04:02:49.094Z,18.45
2019-02-05T04:06:10.056Z,16.52
2019-02-05T04:09:21.907Z,13.78
2019-02-05T04:13:07.798Z,22.20
2019-02-05T04:16:30.276Z,15.13
2019-02-05T04:19:45.898Z,16.45
2019-02-05T04:23:06.448Z,17.82
2019-02-05T04:26:29.048Z,18.05
2019-02-05T04:29:45.395Z,23.00
2019-02-05T04:33:14.006Z,15.35
2019-02-05T04:36:32.516Z,16.87
2019-02-05T04:40:15.337Z,13.98
2019-02-05T04:43:32.565Z,15.10
2019-02-05T04:47:07.816Z,18.90
2019-02-05T04:50:22.786Z,19.48
2019-02-05T04:53:37.890Z,15.88
2019-02-05T04:57:06.285Z,19.17
2019-02-05T05:00:37.927Z,15.30
2019-02-05T05:04:19.051Z,19.85
2019-02-05T05:07:26.313Z,17.20
2019-02-05T05:09:56.738Z,19.27
2019-02-05T05:12:26.579Z,15.80
2019-02-05T05:14:54.959Z,17.87
2019-02-05T05:17:22.863Z,18.00
2019-02-05T05:19:50.835Z,20.70
2019-02-05T05:22:18.788Z,19.30
2019-02-05T05:24:47.056Z,19.95
2019-02-05T05:27:19.233Z,18.60
2019-02-05T05:29:47.955Z,21.15
2019-02-05T05:32:16.899Z,19.25
2019-02-05T05:34:44.771Z,17.50
2019-02-05T05:37:11.266Z,18.90
2019-02-05T05:39:39.243Z,18.05
2019-02-05T05:42:07.195Z,19.50
2019-02-05T05:44:35.163Z,16.37
2019-02-05T05:47:03.519Z,18.25
2019-02-05T05:49:31.373Z,18.65
2019-02-05T05:51:59.279Z,17.65
2019-02-05T05:54:27.306Z,19.85
2019-02-05T05:56:56.425Z,22.55
2019-02-05T05:59:24.369Z,22.22
2019-02-05T06:01:52.297Z,21.42
2019-02-05T06:04:20.569Z,19.07
2019-02-05T06:06:48.540Z,19.25
2019-02-05T06:09:16.485Z,18.98
2019-02-05T06:11:44.423Z,18.52
2019-02-05T06:14:12.337Z,18.67
2019-02-05T06:16:40.365Z,18.98
2019-02-05T06:19:08.266Z,17.85
2019-02-05T06:21:36.183Z,17.42
2019-02-05T06:24:05.279Z,21.25
2019-02-05T06:26:35.609Z,21.07
2019-02-05T06:29:03.765Z,17.23
2019-02-05T06:31:31.627Z,17.52
2019-02-05T06:33:59.541Z,23.20
2019-02-05T06:36:27.499Z,17.40
2019-02-05T06:38:55.419Z,20.35
2019-02-05T06:41:23.459Z,18.75
2019-02-05T06:43:51.498Z,18.73
2019-02-05T06:46:20.261Z,18.77
2019-02-05T06:48:48.183Z,20.72
2019-02-05T06:51:16.212Z,23.57
2019-02-05T06:53:44.118Z,22.87
2019-02-05T06:56:12.084Z,23.40
2019-02-05T06:58:46.522Z,23.35
2019-02-05T07:01:10.114Z,27.15
2019-02-05T07:03:38.047Z,23.25
2019-02-05T07:06:05.956Z,24.75
2019-02-05T07:08:33.937Z,23.00
2019-02-05T07:11:04.487Z,23.62
2019-02-05T07:13:32.584Z,21.90
2019-02-05T07:16:00.761Z,28.25
2019-02-05T07:18:28.614Z,21.73
2019-02-05T07:20:56.484Z,25.55
2019-02-05T07:23:24.407Z,23.20
2019-02-05T07:25:52.348Z,23.20
2019-02-05T07:28:20.536Z,23.32
2019-02-05T07:30:48.504Z,27.82
2019-02-05T07:33:16.890Z,26.07
2019-02-05T07:35:44.784Z,25.57
2019-02-05T07:38:12.626Z,22.42
2019-02-05T07:40:40.614Z,23.70
2019-02-05T07:43:08.784Z,24.70
2019-02-05T07:45:37.768Z,24.98
2019-02-05T07:48:05.633Z,24.43
2019-02-05T07:50:33.832Z,24.05
2019-02-05T07:53:01.953Z,26.02
2019-02-05T07:55:29.883Z,26.95
2019-02-05T07:57:57.782Z,25.12
2019-02-05T08:00:28.352Z,28.98
2019-02-05T08:02:56.251Z,26.65
2019-02-05T08:05:27.873Z,28.12
2019-02-05T08:07:56.100Z,27.58
2019-02-05T08:10:24.090Z,26.80
2019-02-05T08:12:52.436Z,23.62
2019-02-05T08:15:30.078Z,30.35
2019-02-05T08:17:57.909Z,24.18
2019-02-05T08:20:25.841Z,28.57
2019-02-05T08:22:53.698Z,23.02
2019-02-05T08:25:21.600Z,29.15
2019-02-05T08:27:49.925Z,35.05
2019-02-05T08:30:26.477Z,23.80
2019-02-05T08:32:54.351Z,24.85
2019-02-05T08:35:22.272Z,24.70
2019-02-05T08:37:50.212Z,28.60
2019-02-05T08:40:18.932Z,24.37
2019-02-05T08:42:46.922Z,26.77
2019-02-05T08:45:20.537Z,29.18
2019-02-05T08:47:48.816Z,22.67
2019-02-05T08:50:19.861Z,25.05
2019-02-05T08:52:47.774Z,22.07
2019-02-05T08:55:17.750Z,25.05
2019-02-05T08:57:49.384Z,24.67
2019-02-05T09:00:33.016Z,28.07
2019-02-05T09:03:01.152Z,25.68
2019-02-05T09:05:29.066Z,22.90
2019-02-05T09:07:57.234Z,28.27
2019-02-05T09:10:34.878Z,23.00
2019-02-05T09:13:03.447Z,27.07
2019-02-05T09:15:31.779Z,26.02
2019-02-05T09:17:59.897Z,29.25
2019-02-05T09:20:27.991Z,26.73
2019-02-05T09:22:55.902Z,28.40
2019-02-05T09:25:24.007Z,27.17
2019-02-05T09:27:51.912Z,26.15
2019-02-05T09:30:23.020Z,27.13
2019-02-05T09:32:53.650Z,24.30
2019-02-05T09:35:21.753Z,23.30
2019-02-05T09:37:57.888Z,23.45
2019-02-05T09:40:29.107Z,27.85
2019-02-05T09:43:09.295Z,24.75
2019-02-05T09:45:57.081Z,20.88
2019-02-05T09:48:37.454Z,25.12
2019-02-05T09:51:24.947Z,26.25
2019-02-05T09:54:09.379Z,25.37
2019-02-05T09:56:50.775Z,23.83
2019-02-05T09:59:18.717Z,29.35
2019-02-05T10:02:00.155Z,21.93
2019-02-05T10:04:47.620Z,23.75
2019-02-05T10:07:15.789Z,24.70
2019-02-05T10:10:04.251Z,20.60
2019-02-05T10:12:32.218Z,24.35
2019-02-05T10:15:00.348Z,27.62
2019-02-05T10:17:28.475Z,30.90
2019-02-05T10:20:21.413Z,28.62
2019-02-05T10:22:49.621Z,20.02
2019-02-05T10:25:17.776Z,25.25
2019-02-05T10:27:46.674Z,21.77
2019-02-05T10:30:44.526Z,25.23
2019-02-05T10:33:25.280Z,27.40
2019-02-05T10:36:13.093Z,21.42
2019-02-05T10:38:41.114Z,27.65
2019-02-05T10:41:28.754Z,25.25
2019-02-05T10:43:56.683Z,21.50
2019-02-05T10:46:24.594Z,27.65
2019-02-05T10:48:52.566Z,20.52
2019-02-05T10:51:41.915Z,22.25
2019-02-05T10:54:22.580Z,25.57
2019-02-05T10:56:50.549Z,20.65
2019-02-05T10:59:18.417Z,27.87
2019-02-05T11:01:46.511Z,22.48
2019-02-05T11:04:14.714Z,21.77
2019-02-05T11:06:42.720Z,24.52
2019-02-05T11:09:11.983Z,22.82
2019-02-05T11:11:52.932Z,20.08
2019-02-05T11:14:40.444Z,17.82
2019-02-05T11:17:20.759Z,28.25
2019-02-05T11:20:11.598Z,18.98
2019-02-05T11:22:51.986Z,21.12
2019-02-05T11:25:39.459Z,26.23
2019-02-05T11:28:07.341Z,20.50
2019-02-05T11:30:54.801Z,21.87
2019-02-05T11:33:22.736Z,20.48
2019-02-05T11:36:03.343Z,21.77
2019-02-05T11:38:51.391Z,20.35
2019-02-05T11:41:53.459Z,19.17
2019-02-05T11:44:40.969Z,18.85
2019-02-05T11:47:21.382Z,17.70
2019-02-05T11:50:09.922Z,17.85
2019-02-05T11:52:50.943Z,17.23
2019-02-05T11:55:38.581Z,18.75
2019-02-05T11:58:18.957Z,16.80
2019-02-05T12:01:19.580Z,17.30
2019-02-05T12:04:00.166Z,18.20
2019-02-05T12:06:47.530Z,19.70
2019-02-05T12:09:28.489Z,19.85
2019-02-05T12:12:16.167Z,17.12
2019-02-05T12:14:56.851Z,20.90
2019-02-05T12:17:44.551Z,18.55
2019-02-05T12:20:13.339Z,20.40
2019-02-05T12:22:41.493Z,20.10
2019-02-05T12:25:29.213Z,18.80
2019-02-05T12:28:10.143Z,18.62
2019-02-05T12:30:57.935Z,16.87
2019-02-05T12:33:50.486Z,15.83
2019-02-05T12:36:38.051Z,21.37
2019-02-05T12:39:18.969Z,19.82
2019-02-05T12:42:06.582Z,19.67
2019-02-05T12:44:46.856Z,17.17
2019-02-05T12:47:34.611Z,21.17
2019-02-05T12:50:16.442Z,20.15
2019-02-05T12:52:44.420Z,18.17
2019-02-05T12:55:13.825Z,15.15
2019-02-05T12:57:55.075Z,17.65
2019-02-05T13:00:36.302Z,18.57
2019-02-05T13:03:18.542Z,15.53
2019-02-05T13:06:06.505Z,18.57
2019-02-05T13:08:34.484Z,17.75
2019-02-05T13:11:22.126Z,18.17
2019-02-05T13:14:03.390Z,19.23
2019-02-05T13:16:50.950Z,17.50
2019-02-05T13:19:18.938Z,17.30
2019-02-05T13:22:28.088Z,20.60
2019-02-05T13:25:13.755Z,17.02
2019-02-05T13:28:01.386Z,17.92
2019-02-05T13:30:30.926Z,16.40
2019-02-05T13:33:18.545Z,18.25
2019-02-05T13:35:59.524Z,14.35
2019-02-05T13:38:47.091Z,18.85
2019-02-05T13:41:29.157Z,19.85
2019-02-05T13:43:57.315Z,16.27
2019-02-05T13:46:39.967Z,18.57
2019-02-05T13:49:27.458Z,14.10
2019-02-05T13:52:08.568Z,15.45
2019-02-05T13:54:56.015Z,15.63
2019-02-05T13:57:24.236Z,16.02
2019-02-05T14:00:16.866Z,14.18
2019-02-05T14:02:57.608Z,11.30
2019-02-05T14:05:45.858Z,15.95
2019-02-05T14:08:26.818Z,14.13
2019-02-05T14:10:55.059Z,12.60
2019-02-05T14:13:22.945Z,16.00
2019-02-05T14:15:52.365Z,13.30
2019-02-05T14:18:22.662Z,14.43
2019-02-05T14:20:50.162Z,20.50
2019-02-05T14:23:18.107Z,15.32
2019-02-05T14:26:00.904Z,15.38
2019-02-05T14:28:48.559Z,15.38
2019-02-05T14:31:31.374Z,13.95
2019-02-05T14:34:11.555Z,14.68
2019-02-05T14:36:58.952Z,11.88
2019-02-05T14:39:27.080Z,14.98
2019-02-05T14:42:14.739Z,13.43
2019-02-05T14:44:55.108Z,12.85
2019-02-05T14:47:23.264Z,14.63
2019-02-05T14:50:04.313Z,13.55
2019-02-05T14:52:45.836Z,19.37
2019-02-05T14:55:33.394Z,13.88
2019-02-05T14:58:15.099Z,14.60
2019-02-05T15:01:02.693Z,16.37
2019-02-05T15:03:32.809Z,13.50
2019-02-05T15:06:20.207Z,16.80
2019-02-05T15:09:00.777Z,12.45
2019-02-05T15:11:41.078Z,11.33
2019-02-05T15:14:22.894Z,14.47
2019-02-05T15:17:10.360Z,13.35
2019-02-05T15:19:50.503Z,12.30
2019-02-05T15:22:18.408Z,13.95
2019-02-05T15:25:00.794Z,14.53
2019-02-05T15:27:48.344Z,14.23
2019-02-05T15:30:30.547Z,13.32
2019-02-05T15:33:32.357Z,12.37
2019-02-05T15:36:31.461Z,11.38
2019-02-05T15:39:26.218Z,12.50
2019-02-05T15:41:54.527Z,14.87
2019-02-05T15:44:22.561Z,12.85
2019-02-05T15:46:50.515Z,14.85
2019-02-05T15:49:18.451Z,14.60
2019-02-05T15:51:46.456Z,12.73
2019-02-05T15:54:14.468Z,14.07
2019-02-05T15:56:43.184Z,11.48
2019-02-05T15:59:11.186Z,15.00
2019-02-05T16:01:39.181Z,12.15
2019-02-05T16:04:07.462Z,14.78
2019-02-05T16:06:35.396Z,14.58
2019-02-05T16:09:07.250Z,11.63
2019-02-05T16:11:36.412Z,16.27
2019-02-05T16:14:04.895Z,13.88
2019-02-05T16:16:32.900Z,18.73
2019-02-05T16:19:00.847Z,15.28
2019-02-05T16:21:28.905Z,15.50
2019-02-05T16:23:58.269Z,17.12
2019-02-05T16:26:26.548Z,18.70
2019-02-05T16:28:54.623Z,16.62
2019-02-05T16:31:23.108Z,16.77
2019-02-05T16:33:51.042Z,16.50
2019-02-05T16:36:19.101Z,14.60
2019-02-05T16:38:47.084Z,14.70
2019-02-05T16:41:15.152Z,12.70
2019-02-05T16:43:43.260Z,13.72
2019-02-05T16:46:11.426Z,16.27
2019-02-05T16:48:39.576Z,17.82
2019-02-05T16:51:07.533Z,22.25
2019-02-05T16:53:35.602Z,20.02
2019-02-05T16:56:03.818Z,17.37
2019-02-05T16:58:31.886Z,19.10
2019-02-05T17:00:59.960Z,14.15
2019-02-05T17:03:28.115Z,14.95
2019-02-05T17:05:56.089Z,20.27
2019-02-05T17:08:24.039Z,15.40
2019-02-05T17:10:52.071Z,15.93
2019-02-05T17:13:20.125Z,18.07
2019-02-05T17:15:48.367Z,18.55
2019-02-05T17:18:23.289Z,17.82
2019-02-05T17:20:46.173Z,18.82
2019-02-05T17:23:14.207Z,18.70
2019-02-05T17:25:43.298Z,22.77
2019-02-05T17:28:11.201Z,16.75
2019-02-05T17:30:39.553Z,16.05
2019-02-05T17:33:07.706Z,16.48
2019-02-05T17:35:35.914Z,18.02
2019-02-05T17:38:06.739Z,20.05
2019-02-05T17:40:34.728Z,16.60
2019-02-05T17:43:02.909Z,17.20
2019-02-05T17:45:34.380Z,16.32
2019-02-05T17:48:13.615Z,19.65
2019-02-05T17:50:43.897Z,22.35
2019-02-05T17:53:15.175Z,18.48
2019-02-05T17:55:44.920Z,16.85
2019-02-05T17:58:12.972Z,17.77
2019-02-05T18:01:01.470Z,19.40
2019-02-05T18:03:29.502Z,18.87
2019-02-05T18:06:00.724Z,19.12
2019-02-05T18:08:28.904Z,17.23
2019-02-05T18:10:57.160Z,20.55
2019-02-05T18:13:25.500Z,18.40
2019-02-05T18:15:53.668Z,18.40
2019-02-05T18:18:22.109Z,17.27
2019-02-05T18:20:50.146Z,19.50
2019-02-05T18:23:18.565Z,21.42
2019-02-05T18:25:46.919Z,18.30
2019-02-05T18:28:15.122Z,17.07
2019-02-05T18:30:43.162Z,21.30
2019-02-05T18:33:11.616Z,21.45
2019-02-05T18:35:39.774Z,16.75
2019-02-05T18:38:11.365Z,20.25
2019-02-05T18:40:39.472Z,17.37
2019-02-05T18:43:07.776Z,18.17
2019-02-05T18:45:35.715Z,20.62
2019-02-05T18:48:05.026Z,21.60
2019-02-05T18:50:33.167Z,21.40
2019-02-05T18:53:01.327Z,20.82
2019-02-05T18:55:30.633Z,20.82
2019-02-05T18:58:08.839Z,17.17
2019-02-05T19:00:33.338Z,18.37
2019-02-05T19:03:01.426Z,24.27
2019-02-05T19:05:30.021Z,19.70
2019-02-05T19:07:58.750Z,20.17
2019-02-05T19:10:27.691Z,21.17
2019-02-05T19:12:56.498Z,20.30
2019-02-05T19:15:27.586Z,19.00
2019-02-05T19:17:55.656Z,20.85
2019-02-05T19:20:27.985Z,22.48
2019-02-05T19:22:56.092Z,18.27
2019-02-05T19:25:45.651Z,28.10
2019-02-05T19:28:39.273Z,21.15
2019-02-05T19:31:38.811Z,22.62
2019-02-05T19:34:08.408Z,24.85
2019-02-05T19:36:37.394Z,21.07
2019-02-05T19:39:07.330Z,22.67
2019-02-05T19:41:35.818Z,19.92
2019-02-05T19:44:04.373Z,23.45
2019-02-05T19:46:54.579Z,22.75
2019-02-05T19:49:27.405Z,23.52
2019-02-05T19:51:55.784Z,21.75
2019-02-05T19:54:24.467Z,22.30
2019-02-05T19:56:52.749Z,23.57
2019-02-05T19:59:21.556Z,22.25
2019-02-05T20:01:50.309Z,20.85
2019-02-05T20:04:18.445Z,23.05
2019-02-05T20:06:46.843Z,24.02
2019-02-05T20:09:15.367Z,24.27
2019-02-05T20:11:43.599Z,25.88
2019-02-05T20:14:11.689Z,22.17
2019-02-05T20:16:40.071Z,23.57
2019-02-05T20:19:08.783Z,21.45
2019-02-05T20:21:36.878Z,21.42
2019-02-05T20:24:05.143Z,21.70
2019-02-05T20:26:33.225Z,26.87
2019-02-05T20:29:01.790Z,26.02
2019-02-05T20:31:30.191Z,28.35
2019-02-05T20:33:58.502Z,25.15
2019-02-05T20:36:26.660Z,22.48
2019-02-05T20:38:54.769Z,21.27
2019-02-05T20:41:23.119Z,18.95
2019-02-05T20:43:51.300Z,22.15
2019-02-05T20:46:19.402Z,26.15
2019-02-05T20:48:47.631Z,22.05
2019-02-05T20:51:15.812Z,19.42
2019-02-05T20:53:43.965Z,23.12
2019-02-05T20:56:12.148Z,23.40
2019-02-05T20:58:40.650Z,21.68
2019-02-05T21:01:08.851Z,22.82
2019-02-05T21:03:37.096Z,24.87
2019-02-05T21:06:06.800Z,23.25
2019-02-05T21:08:34.916Z,21.55
2019-02-05T21:11:03.082Z,21.00
2019-02-05T21:13:31.153Z,21.80
2019-02-05T21:15:59.472Z,20.70
2019-02-05T21:18:27.606Z,22.40
2019-02-05T21:20:55.976Z,25.50
2019-02-05T21:23:24.141Z,18.98
2019-02-05T21:25:52.497Z,22.35
2019-02-05T21:28:20.601Z,21.07
2019-02-05T21:30:48.595Z,31.23
2019-02-05T21:33:18.891Z,22.10
2019-02-05T21:35:46.618Z,25.17
2019-02-05T21:38:15.110Z,18.77
2019-02-05T21:40:43.381Z,23.85
2019-02-05T21:43:24.257Z,23.45
2019-02-05T21:45:52.520Z,23.00
2019-02-05T21:48:40.519Z,21.82
2019-02-05T21:51:22.641Z,21.42
2019-02-05T21:53:53.711Z,23.57
2019-02-05T21:56:34.808Z,27.87
2019-02-05T21:59:24.078Z,25.45
2019-02-05T22:02:07.428Z,20.10
2019-02-05T22:04:42.480Z,22.70
2019-02-05T22:10:52.516Z,24.18
2019-02-05T22:13:34.523Z,18.52
2019-02-05T22:19:17.250Z,21.40
2019-02-05T22:21:45.646Z,21.23
2019-02-05T22:37:36.251Z,23.55
2019-02-05T22:40:18.521Z,24.72
2019-02-05T22:43:06.281Z,22.82
2019-02-05T22:45:51.485Z,22.50
2019-02-05T22:48:40.504Z,21.82
2019-02-05T22:51:22.219Z,21.93
2019-02-05T22:54:12.260Z,19.82
2019-02-05T22:56:51.517Z,26.73
2019-02-05T22:59:39.526Z,22.37
2019-02-05T23:05:52.803Z,19.57
2019-02-05T23:08:33.272Z,23.77
2019-02-05T23:11:50.463Z,24.02
2019-02-05T23:14:19.360Z,22.35
2019-02-05T23:17:04.749Z,22.58
2019-02-05T23:19:53.438Z,19.90
2019-02-05T23:22:34.694Z,19.95
2019-02-05T23:25:15.483Z,21.48
2019-02-05T23:27:58.906Z,22.55
2019-02-05T23:30:39.191Z,21.77
2019-02-05T23:33:26.613Z,22.42
2019-02-05T23:36:08.196Z,20.15
2019-02-05T23:39:02.454Z,21.52
2019-02-05T23:41:40.361Z,22.25
2019-02-05T23:44:27.860Z,21.42
2019-02-05T23:47:08.690Z,26.65
2019-02-05T23:49:49.504Z,24.18
2019-02-05T23:52:36.930Z,20.65
2019-02-05T23:55:17.446Z,25.23
2019-02-05T23:58:04.903Z,21.57
